Time;durP1;ratioP1;P1;durP2;ratioP2;P2;SDS_P1;SDS_P2;PMS_P1;PMS_P2;Temp;Humidity;BMP_temperature;BMP_pressure;BME280_temperature;BME280_humidity;BME280_pressure;Samples;Min_cycle;Max_cycle;Signal;HPM_P1;HPM_P2
2021/11/28 00:00:07;;;;;;;78.78;31.85;;;;;;;1.24;83.64;98827.76;1701029;81;27473;-64
2021/11/28 00:02:35;;;;;;;86.85;33.65;;;;;;;1.25;83.55;98815.42;1730498;80;98599;-65
2021/11/28 00:05:03;;;;;;;81.42;31.93;;;;;;;1.23;83.58;98820.76;1730786;80;25811;-65
2021/11/28 00:12:46;;;;;;;77.58;31.97;;;;;;;1.23;83.61;98821.22;1746982;79;28115;-63
2021/11/28 00:15:15;;;;;;;81.25;31.30;;;;;;;1.23;83.65;98822.08;1740762;80;98693;-63
2021/11/28 00:17:42;;;;;;;;;;;;;;;1.26;83.71;98819.79;1742013;80;25311;-62
2021/11/28 00:20:12;;;;;;;78.02;30.57;;;;;;;1.27;83.73;98816.23;1703240;81;84026;-63
2021/11/28 00:22:40;;;;;;;76.57;31.15;;;;;;;1.25;83.70;98808.83;1734271;80;25319;-64
2021/11/28 00:25:11;;;;;;;79.12;32.25;;;;;;;1.26;83.71;98808.77;1705638;81;98612;-63
2021/11/28 00:27:39;;;;;;;85.38;32.15;;;;;;;1.26;83.68;98809.23;1700268;81;25689;-63
2021/11/28 00:30:10;;;;;;;79.77;31.82;;;;;;;1.26;83.71;98810.55;1704965;81;25886;-62
2021/11/28 00:32:37;;;;;;;75.90;32.50;;;;;;;1.25;83.72;98805.73;1697561;81;98602;-64
2021/11/28 00:35:05;;;;;;;85.40;32.70;;;;;;;1.26;83.74;98792.08;1722717;80;25744;-63
2021/11/28 00:37:32;;;;;;;78.35;31.60;;;;;;;1.27;83.70;98779.29;1717275;79;98782;-62
2021/11/28 00:39:57;;;;;;;83.37;32.13;;;;;;;1.25;83.67;98783.30;1702360;81;26154;-64
2021/11/28 00:42:23;;;;;;;72.50;31.10;;;;;;;1.22;83.63;98779.91;1704416;81;26378;-64
2021/11/28 00:44:49;;;;;;;74.55;30.17;;;;;;;1.21;83.71;98772.91;1703379;81;98749;-65
2021/11/28 00:47:15;;;;;;;79.37;32.35;;;;;;;1.20;83.69;98783.06;1706258;80;25349;-64
2021/11/28 00:49:51;;;;;;;74.32;31.93;;;;;;;1.20;83.76;98781.73;1699403;81;99118;-64
2021/11/28 00:52:10;;;;;;;73.62;30.48;;;;;;;1.11;83.65;98777.65;1699851;81;25762;-64
2021/11/28 00:54:36;;;;;;;72.90;30.12;;;;;;;1.15;83.71;98799.52;1706651;81;25694;-64
2021/11/28 00:57:02;;;;;;;70.50;30.05;;;;;;;1.13;83.69;98800.02;1697895;81;98639;-65
2021/11/28 00:59:28;;;;;;;76.75;30.50;;;;;;;1.13;83.69;98810.58;1706202;81;25832;-64
2021/11/28 01:01:54;;;;;;;77.05;31.33;;;;;;;1.10;83.68;98804.08;1705769;81;98721;-65
2021/11/28 01:04:20;;;;;;;76.55;32.67;;;;;;;1.08;83.76;98809.41;1707765;81;27268;-64
2021/11/28 01:06:46;;;;;;;70.67;30.37;;;;;;;1.11;83.80;98812.41;1701900;82;25789;-64
2021/11/28 01:09:13;;;;;;;72.95;29.92;;;;;;;1.10;83.77;98803.63;1704892;82;98503;-64
2021/11/28 01:11:40;;;;;;;71.07;30.27;;;;;;;1.09;83.76;98795.77;1705916;80;25779;-65
2021/11/28 01:14:06;;;;;;;73.42;29.98;;;;;;;1.08;83.80;98801.95;1710291;80;98552;-64
2021/11/28 01:16:34;;;;;;;77.95;31.02;;;;;;;1.08;83.81;98805.91;1711608;81;26012;-66
2021/11/28 01:19:02;;;;;;;77.08;29.80;;;;;;;1.08;83.86;98802.81;1713014;81;25778;-62
2021/11/28 01:21:28;;;;;;;74.65;30.32;;;;;;;1.10;83.91;98804.08;1710168;81;98255;-62
2021/11/28 01:23:55;;;;;;;73.25;29.40;;;;;;;1.12;83.88;98807.53;1709556;81;25720;-63
2021/11/28 01:26:21;;;;;;;73.45;31.75;;;;;;;1.08;83.76;98811.19;1703523;81;98675;-62
2021/11/28 01:28:47;;;;;;;84.62;32.60;;;;;;;1.00;83.72;98817.19;1706828;81;25776;-63
2021/11/28 01:31:13;;;;;;;73.67;31.02;;;;;;;0.96;83.78;98808.05;1701975;81;98656;-63
2021/11/28 01:33:39;;;;;;;72.15;31.45;;;;;;;0.93;83.79;98813.89;1707932;81;26028;-63
2021/11/28 01:36:05;;;;;;;66.12;28.38;;;;;;;0.89;83.74;98818.41;1713480;81;26172;-63
2021/11/28 01:38:31;;;;;;;74.97;28.83;;;;;;;0.86;83.75;98830.84;1703377;81;98489;-63
2021/11/28 01:40:57;;;;;;;72.15;30.05;;;;;;;0.80;83.71;98839.81;1739038;80;26449;-63
2021/11/28 01:43:24;;;;;;;68.52;28.77;;;;;;;0.78;83.83;98850.00;1744460;80;98719;-63
2021/11/28 01:45:53;;;;;;;67.75;28.83;;;;;;;0.76;83.84;98841.28;1740859;79;26068;-63
2021/11/28 01:48:20;;;;;;;69.95;29.45;;;;;;;0.74;83.83;98841.78;1742867;79;25786;-62
2021/11/28 01:50:50;;;;;;;72.60;29.85;;;;;;;0.72;83.86;98838.34;1746907;78;98601;-62
2021/11/28 01:53:24;;;;;;;68.45;28.73;;;;;;;0.72;83.90;98839.20;1735706;79;26890;-62
2021/11/28 01:55:51;;;;;;;64.40;28.17;;;;;;;0.71;83.87;98854.61;1739040;78;98800;-62
2021/11/28 01:58:17;;;;;;;64.87;27.25;;;;;;;0.73;83.92;98844.88;1750889;80;26381;-63
2021/11/28 02:00:52;;;;;;;71.37;29.42;;;;;;;0.75;83.92;98847.01;1738067;80;25810;-63
2021/11/28 02:03:18;;;;;;;71.12;28.85;;;;;;;0.77;83.99;98849.14;1737965;80;98570;-63
2021/11/28 02:05:51;;;;;;;82.45;30.57;;;;;;;0.79;83.99;98855.69;1752280;80;26510;-64
2021/11/28 02:08:18;;;;;;;74.20;28.52;;;;;;;0.81;83.96;98855.18;1737333;80;98493;-63
2021/11/28 02:10:45;;;;;;;67.53;28.73;;;;;;;0.84;84.00;98849.34;1745058;79;26760;-63
2021/11/28 02:13:13;;;;;;;63.33;30.45;;;;;;;0.86;83.97;98846.66;1732324;80;98814;-63
2021/11/28 02:15:39;;;;;;;71.20;30.82;;;;;;;0.86;84.00;98838.75;1731556;80;29522;-63
2021/11/28 02:18:08;;;;;;;74.82;30.55;;;;;;;0.84;83.95;98834.84;1734844;80;25688;-62
2021/11/28 02:20:46;;;;;;;90.00;35.70;;;;;;;0.84;84.00;98832.66;1702662;81;98703;-63
2021/11/28 02:23:13;;;;;;;83.40;36.50;;;;;;;0.82;84.03;98822.62;1709175;81;26162;-62
2021/11/28 02:25:39;;;;;;;86.02;35.60;;;;;;;0.82;84.07;98819.98;1711307;80;98689;-63
2021/11/28 02:28:06;;;;;;;81.22;36.90;;;;;;;0.81;84.06;98812.52;1701010;82;27488;-63
2021/11/28 02:30:32;;;;;;;82.57;36.98;;;;;;;0.79;84.05;98814.35;1699130;82;25850;-63
2021/11/28 02:32:59;;;;;;;77.17;37.40;;;;;;;0.78;84.04;98819.22;1704721;82;98671;-63
2021/11/28 02:35:27;;;;;;;93.52;41.18;;;;;;;0.77;84.05;98824.09;1698515;81;26028;-63
2021/11/28 02:37:53;;;;;;;96.00;40.95;;;;;;;0.75;84.06;98827.69;1701495;81;98570;-62
2021/11/28 02:40:23;;;;;;;90.12;36.95;;;;;;;0.73;84.05;98840.06;1702535;81;29516;-62
2021/11/28 02:42:52;;;;;;;76.92;32.65;;;;;;;0.71;84.04;98838.79;1701773;81;26456;-63
2021/11/28 02:45:21;;;;;;;70.85;30.48;;;;;;;0.68;84.06;98839.34;1698346;81;98518;-62
2021/11/28 02:47:48;;;;;;;69.37;29.92;;;;;;;0.64;84.03;98828.90;1707075;81;26347;-64
2021/11/28 02:50:17;;;;;;;71.67;30.17;;;;;;;0.61;84.03;98836.91;1706573;81;98648;-64
2021/11/28 02:52:53;;;;;;;67.60;28.38;;;;;;;0.59;84.01;98829.95;1702103;81;27462;-62
2021/11/28 02:55:24;;;;;;;69.10;28.75;;;;;;;0.55;84.03;98830.52;1739311;80;98839;-62
2021/11/28 02:57:51;;;;;;;66.50;28.00;;;;;;;0.53;84.06;98831.47;1741182;80;25926;-62
2021/11/28 03:00:18;;;;;;;59.60;26.23;;;;;;;0.52;84.08;98827.11;1733964;80;26003;-62
2021/11/28 03:02:44;;;;;;;69.12;28.30;;;;;;;0.47;84.02;98827.71;1702730;81;98608;-62
2021/11/28 03:05:10;;;;;;;70.23;29.40;;;;;;;0.43;84.01;98830.03;1706296;81;27426;-65
2021/11/28 03:07:40;;;;;;;69.77;26.90;;;;;;;0.38;84.03;98824.05;1700097;81;98794;-65
2021/11/28 03:10:28;;;;;;;74.70;29.18;;;;;;;0.33;83.99;98822.42;1704423;81;25828;-64
2021/11/28 03:12:55;;;;;;;67.72;28.60;;;;;;;0.28;84.05;98818.20;1707161;81;26169;-62
2021/11/28 03:15:23;;;;;;;74.75;28.92;;;;;;;0.27;84.14;98811.20;1709638;81;98697;-63
2021/11/28 03:17:49;;;;;;;70.97;30.72;;;;;;;0.25;84.16;98815.20;1708740;81;27475;-63
2021/11/28 03:20:16;;;;;;;73.22;31.23;;;;;;;0.23;84.14;98821.44;1711903;80;98932;-63
2021/11/28 03:22:49;;;;;;;65.95;28.05;;;;;;;0.21;84.16;98825.89;1715658;81;25743;-62
2021/11/28 03:25:18;;;;;;;63.78;28.85;;;;;;;0.19;84.15;98822.44;1706842;81;98931;-63
2021/11/28 03:27:45;;;;;;;61.23;27.62;;;;;;;0.15;84.11;98819.48;1706707;81;25851;-63
2021/11/28 03:30:13;;;;;;;62.03;25.70;;;;;;;0.13;84.14;98816.04;1710108;81;28053;-63
2021/11/28 03:32:40;;;;;;;64.07;28.65;;;;;;;0.10;84.12;98817.00;1713725;81;98707;-63
2021/11/28 03:35:08;;;;;;;60.33;26.95;;;;;;;0.09;84.14;98818.36;1709320;80;25720;-63
2021/11/28 03:37:36;;;;;;;68.22;26.77;;;;;;;0.06;84.13;98825.03;1706680;81;98753;-62
2021/11/28 03:40:07;;;;;;;63.17;27.10;;;;;;;0.03;84.16;98825.98;1707306;81;25699;-63
2021/11/28 03:42:34;;;;;;;59.48;24.43;;;;;;;0.00;84.16;98823.48;1710072;81;31598;-62
2021/11/28 03:45:08;;;;;;;61.58;25.80;;;;;;;0.00;84.17;98811.63;1708939;81;98469;-62
2021/11/28 03:47:35;;;;;;;63.35;26.05;;;;;;;-0.03;84.19;98819.17;1709760;81;25804;-62
2021/11/28 03:50:03;;;;;;;62.93;25.90;;;;;;;-0.06;84.16;98821.89;1710013;81;98774;-62
2021/11/28 03:52:30;;;;;;;59.53;26.37;;;;;;;-0.08;84.16;98822.39;1710317;81;25870;-63
2021/11/28 03:54:56;;;;;;;60.38;24.90;;;;;;;-0.08;84.19;98830.75;1708967;81;27423;-62
2021/11/28 03:57:23;;;;;;;59.98;25.85;;;;;;;-0.10;84.20;98838.69;1714388;81;98764;-62
2021/11/28 03:59:49;;;;;;;64.47;25.05;;;;;;;-0.13;84.19;98840.09;1710587;81;26346;-62
2021/11/28 04:02:18;;;;;;;58.00;24.92;;;;;;;-0.13;84.25;98841.87;1703672;81;98766;-63
2021/11/28 04:04:44;;;;;;;65.67;26.75;;;;;;;-0.14;84.22;98838.38;1706538;81;25819;-62
2021/11/28 04:07:10;;;;;;;73.72;28.47;;;;;;;-0.15;84.26;98837.09;1709787;81;98961;-63
2021/11/28 04:09:37;;;;;;;58.40;26.55;;;;;;;-0.16;84.24;98834.05;1717792;81;25727;-63
2021/11/28 04:12:04;;;;;;;68.00;25.80;;;;;;;-0.18;84.28;98835.87;1688433;81;25821;-63
2021/11/28 04:14:30;;;;;;;62.33;26.80;;;;;;;-0.19;84.24;98832.38;1713379;81;98775;-62
2021/11/28 04:16:56;;;;;;;62.85;27.60;;;;;;;-0.19;84.23;98835.46;1716374;81;26354;-63
2021/11/28 04:19:23;;;;;;;70.12;27.75;;;;;;;-0.22;84.23;98828.97;1707681;81;99020;-63
2021/11/28 04:21:49;;;;;;;66.12;27.58;;;;;;;-0.24;84.20;98821.56;1736566;80;26508;-62
2021/11/28 04:24:15;;;;;;;74.62;31.40;;;;;;;-0.27;84.25;98815.94;1749974;79;26626;-63
2021/11/28 04:26:41;;;;;;;71.60;29.48;;;;;;;-0.27;84.30;98822.97;1746587;80;99058;-62
2021/11/28 04:29:08;;;;;;;78.60;33.75;;;;;;;-0.27;84.30;98825.60;1739535;80;25734;-63
2021/11/28 04:31:34;;;;;;;72.92;32.05;;;;;;;-0.28;84.31;98826.51;1742484;80;99390;-63
2021/11/28 04:34:00;;;;;;;74.30;32.08;;;;;;;-0.32;84.41;98821.79;1740884;80;26186;-63
2021/11/28 04:36:26;;;;;;;76.95;33.38;;;;;;;-0.28;84.32;98825.20;1745910;80;26158;-63
2021/11/28 04:38:52;;;;;;;71.05;33.78;;;;;;;-0.27;84.36;98832.19;1747855;78;98704;-63
2021/11/28 04:41:18;;;;;;;70.55;31.20;;;;;;;-0.28;84.34;98835.73;1736894;80;25720;-63
2021/11/28 04:43:44;;;;;;;77.87;32.73;;;;;;;-0.26;84.41;98836.55;1744704;80;98915;-62
2021/11/28 04:46:10;;;;;;;69.32;30.10;;;;;;;-0.24;84.46;98833.41;1724651;80;33581;-63
2021/11/28 04:48:36;;;;;;;68.47;28.55;;;;;;;-0.22;84.39;98844.31;1739216;80;30991;-63
2021/11/28 04:51:02;;;;;;;64.80;28.20;;;;;;;-0.20;84.45;98849.53;1737872;80;98806;-62
2021/11/28 04:53:28;;;;;;;72.78;29.00;;;;;;;-0.18;84.45;98849.03;1751599;80;26110;-62
2021/11/28 04:55:54;;;;;;;65.25;27.58;;;;;;;-0.14;84.47;98850.67;1744307;79;98794;-63
2021/11/28 04:58:20;;;;;;;65.50;27.17;;;;;;;-0.14;84.47;98846.72;1740329;80;33409;-63
2021/11/28 05:00:46;;;;;;;63.52;28.10;;;;;;;-0.11;84.43;98847.95;1743253;80;26499;-63
2021/11/28 05:03:12;;;;;;;58.63;24.67;;;;;;;-0.15;84.38;98855.53;1745809;79;99181;-63
2021/11/28 05:05:38;;;;;;;63.70;25.60;;;;;;;-0.15;84.27;98866.06;1748980;79;25731;-62
2021/11/28 05:08:05;;;;;;;66.65;27.93;;;;;;;-0.20;84.31;98872.78;1743567;80;99511;-63
2021/11/28 05:10:31;;;;;;;56.68;24.12;;;;;;;-0.20;84.39;98866.64;1739171;80;25724;-63
2021/11/28 05:12:57;;;;;;;58.60;25.32;;;;;;;-0.21;84.37;98862.28;1749411;80;25811;-63
2021/11/28 05:15:23;;;;;;;72.85;26.45;;;;;;;-0.21;84.40;98867.55;1710643;81;98641;-63
2021/11/28 05:17:49;;;;;;;64.70;28.45;;;;;;;-0.22;84.49;98870.64;1708962;81;25750;-63
2021/11/28 05:20:15;;;;;;;72.32;30.82;;;;;;;-0.20;84.56;98872.78;1746475;80;98626;-62
2021/11/28 05:22:42;;;;;;;74.47;30.60;;;;;;;-0.19;84.56;98880.22;1747263;80;25684;-63
2021/11/28 05:25:09;;;;;;;67.80;31.27;;;;;;;-0.19;84.59;98874.95;1734281;80;98746;-66
2021/11/28 05:27:36;;;;;;;72.32;30.12;;;;;;;-0.18;84.59;98872.28;1745697;80;26553;-62
2021/11/28 05:30:05;;;;;;;61.02;26.12;;;;;;;-0.20;84.58;98879.81;1738565;80;26371;-64
2021/11/28 05:32:31;;;;;;;60.20;25.92;;;;;;;-0.22;84.54;98875.05;1745612;80;98774;-64
2021/11/28 05:34:57;;;;;;;66.17;26.68;;;;;;;-0.28;84.49;98867.31;1746795;80;26455;-63
2021/11/28 05:37:23;;;;;;;60.35;25.88;;;;;;;-0.32;84.52;98867.85;1742438;80;98863;-62
2021/11/28 05:39:49;;;;;;;71.82;29.85;;;;;;;-0.34;84.50;98867.03;1737712;80;26050;-63
2021/11/28 05:42:16;;;;;;;66.33;27.62;;;;;;;-0.39;84.50;98875.51;1747409;80;25795;-62
2021/11/28 05:44:42;;;;;;;63.38;26.23;;;;;;;-0.42;84.54;98875.14;1737787;79;98731;-62
2021/11/28 05:47:08;;;;;;;77.65;28.27;;;;;;;-0.46;84.53;98869.55;1738403;79;25910;-62
2021/11/28 05:49:35;;;;;;;62.88;26.70;;;;;;;-0.50;84.52;98872.30;1739933;80;98871;-62
2021/11/28 05:52:03;;;;;;;65.12;26.82;;;;;;;-0.52;84.52;98879.38;1745620;79;26019;-63
2021/11/28 05:54:29;;;;;;;63.42;26.00;;;;;;;-0.56;84.50;98881.23;1737653;80;26397;-63
2021/11/28 05:56:55;;;;;;;58.05;26.07;;;;;;;-0.59;84.46;98881.77;1730127;80;98745;-62
2021/11/28 05:59:21;;;;;;;61.42;26.17;;;;;;;-0.64;84.50;98874.44;1732358;80;25821;-63
2021/11/28 06:01:48;;;;;;;64.67;27.13;;;;;;;-0.68;84.50;98874.98;1737985;80;98938;-62
2021/11/28 06:04:14;;;;;;;67.78;29.77;;;;;;;-0.71;84.57;98886.44;1746367;80;26083;-63
2021/11/28 06:06:40;;;;;;;76.87;31.37;;;;;;;-0.72;84.58;98897.87;1736603;80;25758;-62
2021/11/28 06:09:06;;;;;;;85.62;36.98;;;;;;;-0.74;84.57;98899.67;1732394;80;99188;-63
2021/11/28 06:11:31;;;;;;;83.60;38.17;;;;;;;-0.75;84.59;98897.95;1713537;81;34031;-62
2021/11/28 06:13:58;;;;;;;85.17;37.48;;;;;;;-0.74;84.65;98899.67;1739699;80;98817;-63
2021/11/28 06:16:24;;;;;;;89.52;37.95;;;;;;;-0.72;84.71;98905.77;1745278;80;28189;-62
2021/11/28 06:18:50;;;;;;;82.00;37.15;;;;;;;-0.71;84.70;98899.59;1729141;80;25866;-63
2021/11/28 06:21:16;;;;;;;85.75;36.70;;;;;;;-0.72;84.68;98889.98;1703107;81;98766;-65
2021/11/28 06:23:42;;;;;;;70.20;29.87;;;;;;;-0.72;84.70;98882.53;1743475;78;27203;-63
2021/11/28 06:26:08;;;;;;;79.75;32.73;;;;;;;-0.71;84.71;98877.23;1747599;80;98818;-62
2021/11/28 06:28:35;;;;;;;68.25;28.12;;;;;;;-0.72;84.70;98884.72;1743058;80;26082;-62
2021/11/28 06:31:01;;;;;;;68.90;27.98;;;;;;;-0.72;84.72;98895.69;1752277;80;26526;-62
2021/11/28 06:33:27;;;;;;;61.68;27.45;;;;;;;-0.72;84.73;98893.92;1741593;80;98633;-63
2021/11/28 06:35:54;;;;;;;66.17;26.80;;;;;;;-0.73;84.71;98903.17;1738144;80;33480;-63
2021/11/28 06:38:21;;;;;;;59.13;25.23;;;;;;;-0.74;84.71;98907.57;1743977;80;98730;-63
2021/11/28 06:40:47;;;;;;;61.15;26.62;;;;;;;-0.74;84.71;98909.34;1736791;80;26453;-62
2021/11/28 06:43:13;;;;;;;69.40;26.80;;;;;;;-0.74;84.74;98914.14;1741265;80;98998;-63
2021/11/28 06:45:39;;;;;;;54.18;24.92;;;;;;;-0.72;84.75;98920.69;1755678;80;27308;-63
2021/11/28 06:48:06;;;;;;;68.30;26.40;;;;;;;-0.71;84.76;98921.95;1743505;80;33988;-63
2021/11/28 06:50:32;;;;;;;63.05;27.32;;;;;;;-0.70;84.78;98922.38;1738575;80;98754;-62
2021/11/28 06:52:58;;;;;;;56.83;25.70;;;;;;;-0.71;84.71;98923.72;1738706;80;28106;-64
2021/11/28 06:55:24;;;;;;;68.02;27.48;;;;;;;-0.73;84.66;98930.79;1740784;80;99025;-63
2021/11/28 06:57:50;;;;;;;69.58;28.00;;;;;;;-0.75;84.69;98926.02;1745819;80;27474;-62
2021/11/28 07:00:19;;;;;;;60.78;24.65;;;;;;;-0.75;84.72;98928.20;1730392;80;33487;-62
2021/11/28 07:02:45;;;;;;;62.90;26.80;;;;;;;-0.75;84.70;98932.59;1681651;81;98758;-63
2021/11/28 07:05:11;;;;;;;61.90;24.37;;;;;;;-0.73;84.77;98936.92;1710087;81;26005;-63
2021/11/28 07:07:37;;;;;;;67.22;28.05;;;;;;;-0.70;84.83;98934.21;1709771;81;98925;-62
2021/11/28 07:10:04;;;;;;;60.50;27.35;;;;;;;-0.66;84.88;98922.70;1737600;80;27376;-63
2021/11/28 07:12:30;;;;;;;61.75;27.15;;;;;;;-0.60;84.93;98919.05;1737135;80;25685;-63
2021/11/28 07:14:56;;;;;;;60.12;26.65;;;;;;;-0.55;84.87;98917.62;1742487;80;99111;-63
2021/11/28 07:17:22;;;;;;;61.88;25.90;;;;;;;-0.51;84.89;98916.63;1742612;80;26595;-63
2021/11/28 07:19:48;;;;;;;57.93;26.12;;;;;;;-0.47;84.88;98924.41;1750218;80;99304;-63
2021/11/28 07:22:14;;;;;;;60.60;27.22;;;;;;;-0.43;84.90;98915.52;1739242;80;27470;-63
2021/11/28 07:24:41;;;;;;;68.40;27.45;;;;;;;-0.37;84.96;98918.45;1741838;80;33523;-63
2021/11/28 07:27:09;;;;;;;66.97;27.40;;;;;;;-0.30;85.01;98921.33;1742500;80;98715;-63
2021/11/28 07:29:36;;;;;;;61.50;28.10;;;;;;;-0.25;84.95;98923.83;1744931;80;26057;-63
2021/11/28 07:32:03;;;;;;;66.10;30.32;;;;;;;-0.19;84.96;98926.30;1730808;80;98717;-62
2021/11/28 07:34:29;;;;;;;71.67;29.57;;;;;;;-0.18;84.90;98937.24;1730933;80;27441;-63
2021/11/28 07:36:57;;;;;;;76.57;31.80;;;;;;;-0.15;85.00;98928.80;1734415;80;25775;-63
2021/11/28 07:39:23;;;;;;;63.20;29.35;;;;;;;-0.07;85.09;98936.49;1732998;80;98600;-63
2021/11/28 07:41:50;;;;;;;62.65;27.75;;;;;;;-0.02;85.01;98937.23;1728623;80;26040;-63
2021/11/28 07:44:16;;;;;;;79.00;30.08;;;;;;;-0.04;84.94;98932.45;1730184;80;98767;-63
2021/11/28 07:46:42;;;;;;;63.35;29.02;;;;;;;-0.01;85.00;98937.64;1738111;80;27389;-62
2021/11/28 07:49:08;;;;;;;64.15;28.15;;;;;;;-0.01;84.93;98935.00;1739949;79;98951;-63
2021/11/28 07:51:34;;;;;;;58.35;27.30;;;;;;;0.01;84.96;98935.79;1733344;80;25732;-63
2021/11/28 07:54:01;;;;;;;58.20;28.20;;;;;;;-0.01;84.93;98927.97;1736127;80;26084;-63
2021/11/28 07:56:28;;;;;;;61.77;29.00;;;;;;;0.03;85.03;98930.03;1734218;79;99061;-63
2021/11/28 07:58:55;;;;;;;58.10;26.23;;;;;;;0.08;85.14;98929.45;1736719;80;27470;-63
2021/11/28 08:01:21;;;;;;;70.78;29.92;;;;;;;0.13;85.10;98926.22;1728015;80;98737;-63
2021/11/28 08:03:47;;;;;;;59.35;28.60;;;;;;;0.14;85.09;98920.05;1730751;80;30496;-63
2021/11/28 08:06:14;;;;;;;62.45;27.70;;;;;;;0.17;85.05;98925.69;1727397;80;26116;-63
2021/11/28 08:08:41;;;;;;;60.28;26.95;;;;;;;0.17;84.98;98927.86;1727790;80;98570;-63
2021/11/28 08:11:08;;;;;;;57.00;26.97;;;;;;;0.18;85.06;98930.91;1734149;80;27443;-63
2021/11/28 08:13:34;;;;;;;60.83;27.73;;;;;;;0.22;85.13;98931.23;1738451;80;98749;-63
2021/11/28 08:16:00;;;;;;;60.15;26.23;;;;;;;0.25;85.09;98929.83;1733234;80;25786;-63
2021/11/28 08:18:27;;;;;;;55.05;25.97;;;;;;;0.23;84.97;98933.41;1734331;80;26102;-63
2021/11/28 08:20:53;;;;;;;55.65;25.97;;;;;;;0.22;85.02;98946.17;1733694;80;98495;-63
2021/11/28 08:23:19;;;;;;;60.50;27.35;;;;;;;0.23;84.95;98945.27;1728944;80;28139;-63
2021/11/28 08:25:45;;;;;;;55.12;26.75;;;;;;;0.25;85.11;98944.77;1728954;80;98857;-63
2021/11/28 08:28:12;;;;;;;65.75;28.20;;;;;;;0.30;85.16;98946.81;1718667;81;26514;-63
2021/11/28 08:30:41;;;;;;;60.38;29.55;;;;;;;0.35;85.17;98952.81;1744667;80;26063;-63
2021/11/28 08:33:08;;;;;;;68.62;30.62;;;;;;;0.41;85.19;98954.41;1706981;81;98525;-63
2021/11/28 08:35:35;;;;;;;64.40;29.95;;;;;;;0.46;85.25;98957.77;1710659;81;27399;-62
2021/11/28 08:38:04;;;;;;;82.22;34.95;;;;;;;0.53;85.25;98961.95;1711770;81;98555;-63
2021/11/28 08:40:32;;;;;;;84.72;38.20;;;;;;;0.58;85.24;98964.00;1713313;81;25870;-63
2021/11/28 08:42:59;;;;;;;88.52;38.05;;;;;;;0.63;85.26;98967.36;1709576;81;26659;-64
2021/11/28 08:45:25;;;;;;;80.38;36.98;;;;;;;0.68;85.29;98964.59;1712152;81;98241;-62
2021/11/28 08:47:51;;;;;;;81.22;35.95;;;;;;;0.76;85.31;98969.17;1711961;81;27428;-63
2021/11/28 08:50:18;;;;;;;82.55;36.53;;;;;;;0.81;85.33;98970.76;1707230;81;98738;-62
2021/11/28 08:52:46;;;;;;;74.15;34.73;;;;;;;0.89;85.35;98962.61;1712611;81;25849;-62
2021/11/28 08:55:14;;;;;;;73.87;35.35;;;;;;;0.95;85.37;98963.73;1731072;80;99036;-64
2021/11/28 08:57:41;;;;;;;73.45;34.53;;;;;;;1.01;85.37;98962.23;1735852;80;26444;-64
2021/11/28 09:00:10;;;;;;;72.75;32.90;;;;;;;1.09;85.40;98969.44;1716238;81;27444;-65
2021/11/28 09:02:36;;;;;;;83.58;37.17;;;;;;;1.14;85.35;98967.52;1741989;80;98598;-64
2021/11/28 09:05:05;;;;;;;85.35;39.70;;;;;;;1.18;85.31;98969.15;1714738;81;26042;-64
2021/11/28 09:07:32;;;;;;;78.92;35.90;;;;;;;1.21;85.29;98962.91;1716055;81;99043;-64
2021/11/28 09:09:58;;;;;;;84.37;37.65;;;;;;;1.17;85.13;98964.78;1713169;81;25751;-64
2021/11/28 09:12:25;;;;;;;78.92;36.30;;;;;;;1.11;85.07;98964.98;1711676;81;28370;-64
2021/11/28 09:14:51;;;;;;;85.83;38.80;;;;;;;1.12;85.17;98964.52;1727779;80;98574;-65
2021/11/28 09:17:17;;;;;;;79.82;36.33;;;;;;;1.13;85.19;98957.02;1720190;81;25789;-65
2021/11/28 09:20:05;;;;;;;86.25;38.65;;;;;;;1.16;85.27;98950.32;1720957;81;98869;-65
2021/11/28 09:24:24;;;;;;;80.75;40.78;;;;;;;1.21;85.24;98953.67;1723045;81;25734;-63
2021/11/28 09:25:01;;;;;;;91.05;41.98;;;;;;;1.22;85.26;98936.47;1718464;81;27868;-63
2021/11/28 09:27:29;;;;;;;92.47;41.42;;;;;;;1.23;85.23;98942.16;1722706;81;98185;-63
2021/11/28 09:29:55;;;;;;;89.92;41.48;;;;;;;1.27;85.27;98944.23;1718295;81;26486;-64
2021/11/28 09:32:22;;;;;;;85.35;41.08;;;;;;;1.30;85.27;98936.22;1715360;81;98537;-64
2021/11/28 09:34:48;;;;;;;83.50;38.42;;;;;;;1.29;85.19;98929.21;1722395;81;25792;-64
2021/11/28 09:37:14;;;;;;;87.45;40.78;;;;;;;1.30;85.20;98930.48;1703924;82;98742;-65
2021/11/28 09:39:45;;;;;;;93.33;42.50;;;;;;;1.31;85.19;98940.58;1748957;79;25818;-64
2021/11/28 09:42:16;;;;;;;85.92;38.15;;;;;;;1.34;85.21;98933.87;1740037;79;25770;-65
2021/11/28 09:44:42;;;;;;;79.65;37.33;;;;;;;1.35;85.18;98929.00;1744400;79;98530;-64
2021/11/28 09:47:11;;;;;;;79.92;36.65;;;;;;;1.39;85.25;98933.73;1745824;79;25678;-64
2021/11/28 09:49:42;;;;;;;84.45;36.80;;;;;;;1.39;85.21;98933.27;1739146;79;99205;-64
2021/11/28 09:52:15;;;;;;;79.15;35.17;;;;;;;1.42;85.27;98938.45;1741357;80;26097;-64
2021/11/28 09:54:43;;;;;;;81.40;37.78;;;;;;;1.44;85.21;98936.62;1743946;79;26308;-63
2021/11/28 09:57:16;;;;;;;83.82;35.90;;;;;;;1.44;85.21;98939.26;1749888;79;98816;-63
2021/11/28 09:59:45;;;;;;;72.92;34.40;;;;;;;1.51;85.33;98940.78;1743487;80;25836;-63
2021/11/28 10:02:25;;;;;;;74.80;36.63;;;;;;;1.56;85.32;98932.70;1747436;79;98595;-64
2021/11/28 10:04:53;;;;;;;82.25;37.38;;;;;;;1.62;85.28;98933.35;1737637;79;26013;-63
2021/11/28 10:07:20;;;;;;;71.97;33.65;;;;;;;1.63;85.24;98928.47;1750883;79;98861;-63
2021/11/28 10:09:47;;;;;;;68.30;34.08;;;;;;;1.69;85.34;98919.94;1737626;80;26190;-62
2021/11/28 10:12:28;;;;;;;68.20;34.20;;;;;;;1.74;85.34;98921.50;1737616;79;25780;-63
2021/11/28 10:15:09;;;;;;;79.70;36.63;;;;;;;1.81;85.37;98929.61;1745798;79;98460;-65
2021/11/28 10:17:37;;;;;;;71.22;34.03;;;;;;;1.87;85.40;98939.09;1744481;80;25824;-63
2021/11/28 10:20:09;;;;;;;72.17;35.28;;;;;;;1.94;85.36;98947.20;1728122;80;98595;-63
2021/11/28 10:22:35;;;;;;;80.65;34.50;;;;;;;1.95;85.31;98942.33;1705254;81;26798;-63
2021/11/28 10:25:16;;;;;;;77.27;34.20;;;;;;;1.97;85.25;98941.81;1714572;81;25843;-63
2021/11/28 10:27:52;;;;;;;77.27;34.07;;;;;;;1.95;85.18;98933.94;1706703;81;98286;-63
2021/11/28 10:30:33;;;;;;;73.80;33.08;;;;;;;1.96;85.25;98928.20;1738274;80;26131;-63
2021/11/28 10:33:18;;;;;;;72.42;35.48;;;;;;;1.97;85.21;98926.42;1730710;80;98730;-63
2021/11/28 10:36:08;;;;;;;66.90;34.58;;;;;;;2.00;85.31;98928.95;1714575;80;26159;-63
2021/11/28 10:38:40;;;;;;;84.07;36.35;;;;;;;2.04;85.29;98931.42;1731451;80;98580;-63
2021/11/28 10:41:26;;;;;;;82.12;35.33;;;;;;;2.05;85.24;98925.69;1733434;80;27572;-63
2021/11/28 10:43:54;;;;;;;81.70;37.08;;;;;;;2.08;85.18;98913.68;1738219;80;98632;-63
2021/11/28 10:46:31;;;;;;;91.12;37.55;;;;;;;2.05;85.15;98908.05;1709645;81;25900;-63
2021/11/28 10:49:14;;;;;;;83.65;37.38;;;;;;;2.05;85.10;98913.80;1746184;80;26133;-63
2021/11/28 10:51:48;;;;;;;85.10;37.40;;;;;;;2.04;85.08;98901.05;1738819;80;98350;-64
2021/11/28 10:54:41;;;;;;;85.10;35.55;;;;;;;2.02;85.06;98894.95;1725365;80;29478;-65
2021/11/28 10:57:14;;;;;;;81.30;36.40;;;;;;;2.00;85.07;98895.47;1711394;81;98550;-63
2021/11/28 11:00:06;;;;;;;82.72;37.67;;;;;;;2.04;85.15;98896.22;1710778;81;25902;-63
2021/11/28 11:02:38;;;;;;;83.35;37.03;;;;;;;2.08;85.12;98900.01;1740830;80;98741;-63
2021/11/28 11:05:09;;;;;;;84.55;39.15;;;;;;;2.09;85.08;98892.48;1736738;80;26574;-62
2021/11/28 11:07:54;;;;;;;80.75;37.48;;;;;;;2.13;85.15;98888.81;1737825;80;98727;-65
2021/11/28 11:10:27;;;;;;;88.85;39.00;;;;;;;2.20;85.18;98891.62;1746255;80;27051;-65
2021/11/28 11:12:54;;;;;;;78.85;37.67;;;;;;;2.25;85.22;98883.52;1746245;80;26722;-65
2021/11/28 11:15:40;;;;;;;80.00;36.42;;;;;;;2.28;85.13;98881.63;1737939;80;98704;-65
2021/11/28 11:18:10;;;;;;;94.85;39.25;;;;;;;2.30;85.03;98883.34;1742281;80;25722;-63
2021/11/28 11:20:42;;;;;;;80.42;36.15;;;;;;;2.30;85.10;98884.21;1736695;80;98398;-63
2021/11/28 11:23:36;;;;;;;81.67;37.73;;;;;;;2.36;85.15;98872.08;1746216;80;25740;-63
2021/11/28 11:26:22;;;;;;;86.12;39.42;;;;;;;2.36;85.08;98868.58;1741603;80;97907;-64
2021/11/28 11:29:11;;;;;;;96.22;44.08;;;;;;;2.38;85.08;98869.38;1738412;80;26125;-63
2021/11/28 11:31:42;;;;;;;87.60;41.95;;;;;;;2.45;85.17;98863.80;1748968;80;98823;-63